Data for 02/16/2013

Time Sea-Level Adjusted Pressure Absolute Pressure Temperature Relative Humidity Dew Point   
(mb) (inHg) (mb) (inHg) (C) (F) (%) (C) (F)
00:05 1024 30.24 853 25.19 0 32.1 58 -7.2 19.1
00:10 1024 30.24 853 25.19 -0.1 31.8 60 -6.9 19.6
00:15 1024 30.24 853 25.19 -0.3 31.4 61 -6.9 19.5
00:20 1024 30.24 853 25.19 -0.5 31.1 61 -7.2 19.1
00:25 1024 30.24 853 25.19 -0.6 30.9 62 -7 19.4
00:30 1024 30.24 853 25.19 -0.7 30.8 62 -7.1 19.2
00:35 1024 30.24 853 25.19 -0.7 30.8 62 -7.2 19.1
00:40 1024 30.24 853 25.19 -0.7 30.7 61 -7.4 18.7
00:45 1024 30.24 853 25.19 -0.7 30.7 62 -7.2 19
00:50 1024 30.24 853 25.19 -0.8 30.6 61 -7.3 18.9
00:55 1024 30.24 853 25.19 -1.2 29.9 63 -7.3 18.9
01:00 1024 30.24 853 25.19 -1.6 29.1 65 -7.3 18.8
01:05 1024 30.24 853 25.19 -1.7 29 66 -7.1 19.2
01:10 1024 30.24 853 25.19 -1.4 29.5 64 -7.3 18.9
01:15 1024 30.24 853 25.19 -1 30.2 61 -7.5 18.5
01:20 1024 30.24 853 25.19 -0.9 30.4 62 -7.3 18.8
01:25 1024 30.24 853 25.19 -1.2 29.9 64 -7.2 19.1
01:30 1024 30.24 853 25.19 -1.3 29.7 63 -7.4 18.7
01:35 1024 30.24 853 25.19 -1.5 29.3 65 -7.3 18.9
01:40 1024 30.24 853 25.19 -1.6 29.1 65 -7.4 18.6
01:45 1024 30.24 853 25.19 -1.7 28.9 65 -7.4 18.6
01:50 1024 30.24 853 25.19 -1.8 28.7 66 -7.5 18.6
01:55 1024 30.24 853 25.19 -1.9 28.6 66 -7.4 18.6
02:00 1024 30.24 853 25.19 -1.9 28.7 66 -7.5 18.5
02:05 1024 30.24 853 25.19 -1.9 28.6 66 -7.5 18.5
02:10 1024 30.24 853 25.19 -2.1 28.3 66 -7.6 18.4
02:15 1024 30.24 853 25.19 -2.2 28 67 -7.6 18.3
02:20 1024 30.24 853 25.19 -2.2 28 67 -7.5 18.4
02:25 1024 30.24 853 25.19 -2.3 27.8 68 -7.5 18.4
02:30 1024 30.24 853 25.19 -2.5 27.5 68 -7.6 18.3
02:35 1024 30.24 853 25.19 -2.5 27.5 67 -7.8 18
02:40 1024 30.24 853 25.19 -2.5 27.6 68 -7.6 18.3
02:45 1024 30.24 853 25.19 -2.1 28.2 67 -7.5 18.4
02:50 1024 30.24 853 25.19 -2.1 28.2 66 -7.5 18.5
02:55 1024 30.24 853 25.19 -2.3 27.8 67 -7.6 18.4
03:00 1024 30.24 853 25.19 -2.2 28 67 -7.5 18.5
03:05 1024 30.24 853 25.19 -2.1 28.1 66 -7.7 18.1
03:10 1024 30.24 853 25.19 -2.1 28.3 66 -7.5 18.5
03:15 1024 30.24 853 25.19 -1.9 28.5 65 -7.6 18.3
03:20 1024 30.24 853 25.19 -1.9 28.5 66 -7.4 18.7
03:25 1024 30.24 853 25.19 -1.8 28.8 65 -7.6 18.3
03:30 1024 30.24 853 25.19 -1.7 29 65 -7.5 18.5
03:35 1024 30.24 853 25.19 -2.2 28 66 -7.8 18
03:40 1024 30.24 853 25.19 -2.4 27.7 67 -7.7 18.1
03:45 1023 30.21 853 25.19 -2.5 27.5 68 -7.6 18.3
03:50 1023 30.21 853 25.19 -2.8 26.9 69 -7.8 17.9
03:55 1023 30.21 853 25.19 -2.4 27.7 67 -7.7 18.2
04:00 1023 30.21 853 25.19 -2.8 27 68 -7.9 17.8
04:05 1023 30.21 852 25.16 -2.4 27.6 65 -8.2 17.2
04:10 1023 30.21 852 25.16 -2 28.4 64 -8 17.6
04:15 1023 30.21 852 25.16 -2.2 28.1 66 -7.8 18
04:20 1023 30.21 852 25.16 -2.5 27.4 67 -7.9 17.7
04:25 1023 30.21 852 25.16 -2 28.4 64 -7.9 17.7
04:30 1023 30.21 852 25.16 -1.9 28.5 64 -7.9 17.9
04:35 1023 30.21 852 25.16 -2 28.5 65 -7.8 18
04:40 1023 30.21 852 25.16 -1.9 28.7 64 -7.8 17.9
04:45 1023 30.21 852 25.16 -2 28.4 65 -7.8 18
04:50 1023 30.21 852 25.16 -2 28.3 65 -7.8 18
04:55 1023 30.21 852 25.16 -2.2 28.1 66 -7.7 18.1
05:00 1023 30.21 852 25.16 -2.3 27.9 66 -7.8 18
05:05 1023 30.21 852 25.16 -2.4 27.7 66 -7.8 18
05:10 1023 30.21 852 25.16 -2.5 27.5 66 -8 17.6
05:15 1023 30.21 852 25.16 -2.1 28.2 65 -7.9 17.8
05:20 1022 30.18 852 25.16 -2 28.3 65 -7.8 18
05:25 1022 30.18 852 25.16 -2 28.4 64 -7.9 17.9
05:30 1022 30.18 852 25.16 -2 28.4 65 -7.7 18.1
05:35 1022 30.18 852 25.16 -2.3 27.9 66 -7.8 18
05:40 1022 30.18 851 25.13 -2.1 28.2 65 -7.8 17.9
05:45 1022 30.18 851 25.13 -2.4 27.7 66 -7.9 17.8
05:50 1022 30.18 851 25.13 -2.2 28.1 65 -7.9 17.8
05:55 1022 30.18 851 25.13 -2.5 27.4 67 -7.8 18
06:00 1022 30.18 851 25.13 -2.3 27.8 66 -7.9 17.8
06:05 1022 30.18 851 25.13 -2.2 28 65 -7.9 17.7
06:10 1022 30.18 851 25.13 -2.1 28.2 64 -8.1 17.5
06:15 1022 30.18 851 25.13 -2.4 27.7 66 -8 17.7
06:20 1022 30.18 851 25.13 -2.6 27.2 66 -8.1 17.4
06:25 1022 30.18 851 25.13 -2.6 27.4 66 -8.1 17.4
06:30 1022 30.18 851 25.13 -1.9 28.6 63 -8.1 17.4
06:35 1022 30.18 851 25.13 -1.5 29.2 62 -7.9 17.8
06:40 1022 30.18 851 25.13 -1.5 29.2 62 -7.9 17.7
06:45 1022 30.18 851 25.13 -1.3 29.6 63 -7.6 18.3
06:50 1022 30.18 851 25.13 -2 28.4 65 -7.8 18
06:55 1022 30.18 852 25.16 -2.4 27.7 66 -7.9 17.8
07:00 1022 30.18 851 25.13 -2.7 27.2 66 -8.1 17.4
07:05 1022 30.18 851 25.13 -3.2 26.2 68 -8.3 17.1
07:10 1022 30.18 851 25.13 -3.3 26.1 70 -8 17.5
07:15 1022 30.18 851 25.13 -2.8 27 66 -8.3 17.1
07:20 1022 30.18 851 25.13 -2.8 27 66 -8.2 17.2
07:25 1022 30.18 851 25.13 -2.6 27.3 66 -8 17.6
07:30 1022 30.18 851 25.13 -2.8 27 67 -8.1 17.5
07:35 1022 30.18 851 25.13 -3.4 25.9 68 -8.6 16.6
07:40 1022 30.18 851 25.13 -3.5 25.7 69 -8.4 16.8
07:45 1022 30.18 851 25.13 -3.5 25.7 68 -8.5 16.7
07:50 1022 30.18 851 25.13 -3.5 25.7 69 -8.4 16.8
07:55 1022 30.18 851 25.13 -3.5 25.7 67 -8.7 16.4
08:00 1022 30.18 851 25.13 -4 24.8 71 -8.5 16.7
08:05 1022 30.18 851 25.13 -4.1 24.5 71 -8.6 16.5
08:10 1022 30.18 851 25.13 -4.4 24 73 -8.5 16.6
08:15 1022 30.18 851 25.13 -4 24.8 71 -8.6 16.6
08:20 1022 30.18 851 25.13 -4 24.7 72 -8.3 17.1
08:25 1022 30.18 851 25.13 -4.5 23.9 73 -8.6 16.5
08:30 1022 30.18 851 25.13 -4.5 24 73 -8.7 16.4
08:35 1022 30.18 851 25.13 -4.4 24 73 -8.6 16.5
08:40 1022 30.18 851 25.13 -4.4 24.1 73 -8.6 16.6
08:45 1022 30.18 851 25.13 -4.1 24.6 71 -8.5 16.6
08:50 1022 30.18 851 25.13 -3.6 25.5 68 -8.6 16.5
08:55 1022 30.18 851 25.13 -3 26.6 66 -8.4 16.8
09:00 1022 30.18 851 25.13 -2.4 27.7 64 -8.3 17
09:05 1022 30.18 851 25.13 -1.6 29.1 61 -8.3 17.1
09:10 1022 30.18 851 25.13 -1.4 29.6 62 -7.8 17.9
09:15 1022 30.18 851 25.13 -2.3 27.8 66 -7.8 18
09:20 1022 30.18 851 25.13 -2.4 27.7 63 -8.6 16.6
09:25 1022 30.18 851 25.13 -2.3 27.8 64 -8.3 17.1
09:30 1022 30.18 851 25.13 -2.5 27.6 63 -8.6 16.6
09:35 1022 30.18 851 25.13 -2.2 28 62 -8.5 16.7
09:40 1022 30.18 851 25.13 -1.9 28.6 61 -8.5 16.8
09:45 1022 30.18 851 25.13 -1.7 28.9 60 -8.5 16.8
09:50 1022 30.18 851 25.13 -1.3 29.7 59 -8.3 17.1
09:55 1022 30.18 851 25.13 -1 30.2 58 -8.2 17.2
10:00 1022 30.18 851 25.13 -0.7 30.8 56 -8.3 17.1
10:05 1022 30.18 851 25.13 -0.3 31.5 55 -8.2 17.2
10:10 1022 30.18 851 25.13 0.2 32.4 54 -8 17.5
10:15 1021 30.15 851 25.13 0.2 32.3 55 -7.8 18
10:20 1021 30.15 851 25.13 0 32 56 -7.7 18.2
10:25 1021 30.15 851 25.13 0.1 32.3 55 -7.9 17.8
10:30 1021 30.15 850 25.1 0.7 33.2 53 -7.9 17.7
10:35 1021 30.15 850 25.1 1.2 34.2 51 -7.7 18.1
10:40 1021 30.15 850 25.1 1.2 34.2 53 -7.3 18.8
10:45 1021 30.15 850 25.1 1 33.9 53 -7.5 18.4
10:50 1021 30.15 850 25.1 1 33.9 53 -7.4 18.7
10:55 1021 30.15 850 25.1 1.2 34.1 51 -7.9 17.8
11:00 1021 30.15 850 25.1 1.6 34.8 51 -7.5 18.5
11:05 1021 30.15 850 25.1 1.7 35 52 -7.2 19.1
11:10 1021 30.15 850 25.1 2.1 35.8 49 -7.4 18.7
11:15 1021 30.15 850 25.1 3.1 37.6 45 -7.6 18.3
11:20 1021 30.15 850 25.1 3.6 38.4 46 -7 19.4
11:25 1021 30.15 850 25.1 4.2 39.6 44 -7 19.4
11:30 1021 30.15 850 25.1 4.6 40.4 41 -7.6 18.3
11:35 1021 30.15 850 25.1 4.8 40.6 40 -7.6 18.3
11:40 1021 30.15 850 25.1 4.9 40.9 39 -8 17.6
11:45 1021 30.15 850 25.1 5.5 41.8 40 -7.1 19.2
11:50 1021 30.15 850 25.1 5.5 41.8 38 -7.7 18.1
11:55 1021 30.15 850 25.1 5.6 42 41 -6.7 19.9
12:00 1020 30.12 850 25.1 5.4 41.7 40 -7 19.4
12:05 1020 30.12 850 25.1 6.1 42.9 37 -7.6 18.4
12:10 1020 30.12 850 25.1 6.7 44.1 36 -7.2 19
12:15 1020 30.12 850 25.1 6.7 44 37 -7.1 19.3
12:20 1020 30.12 850 25.1 6.9 44.4 36 -7 19.4
12:25 1020 30.12 850 25.1 6.9 44.4 35 -7.4 18.7
12:30 1020 30.12 849 25.07 5.9 42.6 42 -6.1 21
12:35 1020 30.12 849 25.07 4.9 40.8 42 -7 19.4
12:40 1020 30.12 849 25.07 5.5 42 39 -7.5 18.6
12:45 1020 30.12 849 25.07 5.5 42 41 -6.7 20
12:50 1020 30.12 849 25.07 5.8 42.4 39 -7 19.4
12:55 1020 30.12 849 25.07 6.3 43.3 38 -7 19.4
13:00 1020 30.12 849 25.07 6.4 43.5 38 -7 19.3
13:05 1020 30.12 849 25.07 7 44.6 35 -7.5 18.5
13:10 1020 30.12 849 25.07 6.1 43 38 -7.3 18.9
13:15 1019 30.09 849 25.07 7.1 44.8 34 -7.7 18.2
13:20 1019 30.09 849 25.07 7.7 45.9 35 -6.7 19.9
13:25 1019 30.09 848 25.04 8 46.5 34 -7 19.4
13:30 1019 30.09 848 25.04 7.3 45.2 37 -6.6 20.2
13:35 1019 30.09 848 25.04 7.8 46.1 33 -7.3 18.8
13:40 1019 30.09 848 25.04 8.1 46.6 32 -7.5 18.5
13:45 1019 30.09 848 25.04 8.5 47.3 32 -7.2 19.1
13:50 1019 30.09 848 25.04 8.6 47.5 32 -7.1 19.2
13:55 1019 30.09 848 25.04 8.4 47.1 34 -6.6 20.1
14:00 1019 30.09 848 25.04 8.4 47.1 35 -6.2 20.9
14:05 1019 30.09 848 25.04 8.2 46.8 38 -5.4 22.3
14:10 1018 30.06 848 25.04 8.3 46.9 34 -6.6 20.1
14:15 1018 30.06 848 25.04 8.2 46.8 36 -6.2 20.9
14:20 1018 30.06 847 25.01 8.3 46.9 35 -6.3 20.6
14:25 1018 30.06 847 25.01 7.9 46.2 39 -5.3 22.4
14:30 1018 30.06 847 25.01 6.9 44.4 40 -5.8 21.5
14:35 1018 30.06 847 25.01 6.7 44.1 39 -6.4 20.5
14:40 1018 30.06 847 25.01 7.4 45.4 38 -6 21.3
14:45 1018 30.06 847 25.01 7.5 45.5 37 -6.1 20.9
14:50 1018 30.06 847 25.01 7.7 45.9 37 -6 21.2
14:55 1018 30.06 847 25.01 7.9 46.2 36 -6.4 20.4
15:00 1017 30.03 847 25.01 8.4 47.2 34 -6.6 20.1
15:05 1017 30.03 847 25.01 9 48.2 30 -7.6 18.4
15:10 1017 30.03 846 24.98 8.1 46.5 32 -7.5 18.5
15:15 1017 30.03 846 24.98 8.8 47.8 29 -8.2 17.3
15:20 1017 30.03 846 24.98 9.2 48.6 29 -7.8 18
15:25 1017 30.03 846 24.98 8.8 47.8 31 -7.5 18.5
15:30 1017 30.03 846 24.98 8.8 47.8 29 -8.1 17.4
15:35 1017 30.03 846 24.98 8.5 47.4 31 -7.5 18.6
15:40 1017 30.03 846 24.98 7.9 46.1 31 -8.4 16.9
15:45 1017 30.03 846 24.98 8.5 47.3 31 -7.6 18.4
15:50 1017 30.03 846 24.98 9.1 48.4 30 -7.4 18.7
15:55 1017 30.03 846 24.98 8.7 47.6 31 -7.7 18.2
16:00 1016 30 846 24.98 8.6 47.5 32 -7.2 19.1
16:05 1016 30 846 24.98 8.9 48 30 -7.6 18.4
16:10 1016 30 845 24.95 8.2 46.8 32 -7.6 18.3
16:15 1016 30 845 24.95 8 46.3 33 -7.5 18.4
16:20 1016 30 845 24.95 8 46.3 33 -7.4 18.7
16:25 1016 30 845 24.95 8.5 47.4 32 -7.1 19.3
16:30 1016 30 845 24.95 9.2 48.6 32 -6.8 19.8
16:35 1016 30 845 24.95 8.5 47.2 31 -7.6 18.3
16:40 1016 30 845 24.95 8.8 47.9 32 -7.1 19.2
16:45 1016 30 845 24.95 9 48.2 33 -6.6 20.2
16:50 1016 30 845 24.95 9 48.1 31 -7.2 19.1
16:55 1016 30 845 24.95 9.7 49.4 30 -7.2 19
17:00 1016 30 845 24.95 10.2 50.4 30 -6.4 20.5
17:05 1016 30 845 24.95 10.1 50.1 30 -6.7 20
17:10 1016 30 845 24.95 9.5 49.2 32 -6.2 20.8
17:15 1015 29.97 845 24.95 9.7 49.5 30 -6.8 19.7
17:20 1015 29.97 845 24.95 9.7 49.5 29 -7.4 18.8
17:25 1015 29.97 844 24.92 9.3 48.7 30 -7.5 18.4
17:30 1015 29.97 844 24.92 9.3 48.7 30 -7.3 18.8
17:35 1015 29.97 844 24.92 9.5 49.1 30 -7.2 19.1
17:40 1015 29.97 844 24.92 9.4 49 30 -7.3 18.9
17:45 1015 29.97 844 24.92 9 48.3 31 -7.3 18.8
17:50 1015 29.97 844 24.92 8.9 48 30 -7.9 17.8
17:55 1015 29.97 844 24.92 8.5 47.3 31 -7.5 18.4
18:00 1015 29.97 844 24.92 8.2 46.7 32 -7.7 18.2
18:05 1015 29.97 844 24.92 8.3 47 31 -7.7 18.2
18:10 1015 29.97 844 24.92 8.2 46.7 32 -7.6 18.4
18:15 1014 29.94 844 24.92 8.1 46.6 33 -7.4 18.7
18:20 1014 29.94 844 24.92 7.9 46.2 33 -7.4 18.6
18:25 1014 29.94 844 24.92 7.7 45.8 34 -7.4 18.7
18:30 1014 29.94 843 24.89 7.1 44.8 35 -7.3 18.8
18:35 1014 29.94 843 24.89 6.9 44.4 35 -7.7 18.2
18:40 1014 29.94 843 24.89 6.7 44.1 35 -7.7 18.2
18:45 1014 29.94 843 24.89 6.5 43.8 35 -7.8 17.9
18:50 1014 29.94 843 24.89 6.5 43.6 36 -7.6 18.3
18:55 1014 29.94 843 24.89 6.3 43.3 37 -7.3 18.9
19:00 1014 29.94 843 24.89 6 42.8 39 -7 19.4
19:05 1014 29.94 843 24.89 5.7 42.2 40 -6.9 19.6
19:10 1014 29.94 843 24.89 5.2 41.4 42 -6.7 20
19:15 1014 29.94 843 24.89 5 40.9 43 -6.6 20.1
19:20 1014 29.94 843 24.89 4.7 40.5 44 -6.6 20.1
19:25 1014 29.94 843 24.89 4.3 39.8 45 -6.4 20.4
19:30 1014 29.94 843 24.89 4.2 39.6 46 -6.4 20.5
19:35 1014 29.94 843 24.89 4 39.2 46 -6.5 20.3
19:40 1014 29.94 843 24.89 3.9 38.9 47 -6.3 20.6
19:45 1014 29.94 843 24.89 3.5 38.4 48 -6.4 20.5
19:50 1014 29.94 843 24.89 3.4 38.1 49 -6.3 20.6
19:55 1014 29.94 843 24.89 3.2 37.8 49 -6.4 20.4
20:00 1013 29.91 843 24.89 3.2 37.8 49 -6.5 20.3
20:05 1013 29.91 843 24.89 3.1 37.5 49 -6.6 20.2
20:10 1013 29.91 843 24.89 2.8 37.1 50 -6.5 20.3
20:15 1013 29.91 843 24.89 2.5 36.5 51 -6.6 20.2
20:20 1013 29.91 843 24.89 2.7 36.9 49 -7 19.4
20:25 1013 29.91 842 24.86 3.2 37.7 48 -6.7 19.9
20:30 1013 29.91 842 24.86 3 37.4 49 -6.7 19.9
20:35 1013 29.91 842 24.86 2.8 37 50 -6.7 20
20:40 1013 29.91 842 24.86 2.6 36.7 49 -6.9 19.5
20:45 1013 29.91 842 24.86 2.6 36.7 49 -6.9 19.5
20:50 1013 29.91 842 24.86 2.4 36.4 50 -6.9 19.5
20:55 1013 29.91 842 24.86 2.4 36.3 50 -7.1 19.3
21:00 1013 29.91 842 24.86 2.4 36.2 50 -6.9 19.5
21:05 1012 29.88 842 24.86 2.2 36 50 -7.2 19.1
21:10 1012 29.88 842 24.86 2.1 35.8 49 -7.5 18.6
21:15 1012 29.88 841 24.83 2.1 35.8 47 -8 17.5
21:20 1012 29.88 841 24.83 2.6 36.7 48 -7.4 18.7
21:25 1012 29.88 841 24.83 2.5 36.5 46 -7.9 17.9
21:30 1012 29.88 841 24.83 2.7 36.9 45 -8.1 17.4
21:35 1012 29.88 841 24.83 2.5 36.5 46 -8.1 17.5
21:40 1012 29.88 841 24.83 2.6 36.7 46 -7.8 18
21:45 1012 29.88 841 24.83 2.6 36.6 46 -7.9 17.7
21:50 1012 29.88 841 24.83 2.2 35.9 47 -8 17.6
21:55 1012 29.88 841 24.83 2.3 36.1 46 -8.2 17.3
22:00 1012 29.88 841 24.83 2.6 36.6 46 -7.9 17.8
22:05 1012 29.88 841 24.83 2.4 36.4 46 -8 17.5
22:10 1012 29.88 841 24.83 2.5 36.4 46 -7.9 17.8
22:15 1012 29.88 841 24.83 2.6 36.6 48 -7.4 18.7
22:20 1011 29.85 841 24.83 2 35.5 52 -6.9 19.5
22:25 1012 29.88 841 24.83 1.4 34.6 53 -7.2 19.1
22:30 1011 29.85 841 24.83 1.3 34.3 55 -6.8 19.7
22:35 1011 29.85 841 24.83 1.1 34 55 -6.9 19.5
22:40 1011 29.85 841 24.83 1.3 34.3 51 -7.7 18.1
22:45 1011 29.85 841 24.83 1.6 34.8 54 -6.9 19.6
22:50 1011 29.85 841 24.83 1.2 34.2 55 -6.9 19.5
22:55 1011 29.85 840 24.81 1.1 34 54 -7.2 19.1
23:00 1011 29.85 840 24.81 1.3 34.3 54 -7 19.4
23:05 1011 29.85 840 24.81 1.4 34.5 51 -7.6 18.3
23:10 1011 29.85 840 24.81 1.8 35.3 51 -7.4 18.7
23:15 1011 29.85 840 24.81 1.9 35.4 50 -7.5 18.6
23:20 1011 29.85 840 24.81 2 35.5 50 -7.4 18.7
23:25 1011 29.85 840 24.81 1.8 35.3 50 -7.5 18.5
23:30 1011 29.85 840 24.81 1.9 35.4 50 -7.5 18.5
23:35 1011 29.85 840 24.81 1.8 35.2 51 -7.4 18.7
23:40 1011 29.85 840 24.81 1.8 35.2 51 -7.4 18.7
23:45 1011 29.85 840 24.81 1.8 35.3 52 -7.1 19.3
23:50 1011 29.85 840 24.81 1.8 35.2 50 -7.6 18.4
23:55 1011 29.85 840 24.81 1.9 35.4 50 -7.4 18.6
24:00 1010 29.83 840 24.81 2 35.5 49 -7.7 18.2